Time;durP1;ratioP1;P1;durP2;ratioP2;P2;SDS_P1;SDS_P2;PMS_P1;PMS_P2;Temp;Humidity;BMP_temperature;BMP_pressure;BME280_temperature;BME280_humidity;BME280_pressure;Samples;Min_cycle;Max_cycle;Signal;HPM_P1;HPM_P2
2024/01/29 00:00:09;;;;;;;7.67;6.97;;;5.30;50.20;;;;;;21101;6716;118686;-79
2024/01/29 00:02:44;;;;;;;6.97;6.37;;;5.10;50.30;;;;;;21050;6734;115904;-79
2024/01/29 00:05:20;;;;;;;7.13;6.53;;;4.80;50.90;;;;;;21075;6724;118384;-78
2024/01/29 00:07:55;;;;;;;7.50;7.00;;;4.50;51.50;;;;;;21044;6732;115927;-79
2024/01/29 00:10:32;;;;;;;9.48;8.68;;;4.50;52.50;;;;;;20810;6717;325111;-78
2024/01/29 00:13:07;;;;;;;8.40;7.60;;;4.40;52.40;;;;;;20877;6750;120582;-79
2024/01/29 00:15:43;;;;;;;9.25;8.45;;;4.50;52.30;;;;;;20811;6721;331605;-78
2024/01/29 00:18:18;;;;;;;9.27;8.30;;;4.60;52.40;;;;;;21100;6712;119458;-77
2024/01/29 00:20:57;;;;;;;7.50;6.80;;;4.50;52.10;;;;;;21104;6712;119435;-78
2024/01/29 00:23:30;;;;;;;7.83;7.13;;;4.10;52.60;;;;;;20957;6730;119820;-78
2024/01/29 00:26:06;;;;;;;9.52;8.73;;;4.10;52.90;;;;;;20795;6719;305534;-79
2024/01/29 00:28:41;;;;;;;8.27;7.57;;;4.30;53.10;;;;;;21023;6716;116713;-78
2024/01/29 00:31:17;;;;;;;9.40;8.60;;;4.30;52.80;;;;;;20808;6716;286040;-79
2024/01/29 00:33:52;;;;;;;9.77;8.97;;;4.40;52.80;;;;;;20740;6716;306941;-78
2024/01/29 00:36:28;;;;;;;9.75;8.85;;;4.70;52.30;;;;;;20821;6716;304948;-79
2024/01/29 00:39:08;;;;;;;8.10;7.50;;;4.80;51.60;;;;;;21044;6716;119139;-79
2024/01/29 00:41:40;;;;;;;8.10;7.33;;;4.80;51.60;;;;;;20922;6739;118976;-79
2024/01/29 00:44:17;;;;;;;9.40;8.70;;;4.50;52.10;;;;;;20650;6727;338580;-79
2024/01/29 00:46:51;;;;;;;9.82;8.93;;;4.50;52.30;;;;;;20826;6709;306434;-79
2024/01/29 00:49:31;;;;;;;9.00;8.30;;;4.70;51.80;;;;;;20736;6726;335570;-79
2024/01/29 00:52:04;;;;;;;9.13;8.33;;;5.00;51.80;;;;;;20995;6724;119334;-79
2024/01/29 00:54:40;;;;;;;8.63;7.93;;;4.80;51.80;;;;;;20874;6717;119704;-78
2024/01/29 00:57:15;;;;;;;9.63;8.87;;;4.40;52.60;;;;;;20724;6736;277652;-79
2024/01/29 00:59:51;;;;;;;8.30;7.60;;;4.50;52.60;;;;;;20958;6736;123006;-79
2024/01/29 01:02:26;;;;;;;8.27;7.50;;;4.40;52.50;;;;;;20891;6754;116929;-79
2024/01/29 01:05:03;;;;;;;9.95;9.10;;;4.20;52.90;;;;;;20553;6732;341153;-79
2024/01/29 01:07:39;;;;;;;9.70;8.90;;;4.30;53.30;;;;;;20719;6732;305822;-79
2024/01/29 01:10:14;;;;;;;8.47;7.87;;;4.60;52.70;;;;;;20922;6744;115744;-79
2024/01/29 01:12:50;;;;;;;8.57;7.77;;;4.50;52.50;;;;;;20938;6740;120484;-79
2024/01/29 01:15:25;;;;;;;10.05;9.15;;;4.30;53.00;;;;;;20692;6747;306071;-79
2024/01/29 01:18:03;;;;;;;8.93;8.10;;;4.30;53.00;;;;;;21032;6710;116860;-78
2024/01/29 01:20:37;;;;;;;10.23;9.43;;;4.30;52.90;;;;;;20785;6724;275876;-79
2024/01/29 01:23:12;;;;;;;8.50;7.80;;;4.40;52.80;;;;;;20942;6723;121162;-79
2024/01/29 01:25:48;;;;;;;9.77;9.07;;;4.30;52.70;;;;;;20779;6723;276150;-79
2024/01/29 01:28:24;;;;;;;10.30;9.50;;;4.70;52.30;;;;;;20725;6745;313522;-79
2024/01/29 01:31:00;;;;;;;10.52;9.63;;;4.70;52.30;;;;;;20664;6758;336876;-79
2024/01/29 01:33:35;;;;;;;15.25;13.95;;;4.90;51.80;;;;;;20598;6754;310917;-80
2024/01/29 01:36:11;;;;;;;29.47;23.50;;;5.00;51.80;;;;;;21029;6714;118132;-78
2024/01/29 01:38:47;;;;;;;19.40;17.43;;;4.80;51.90;;;;;;20777;6729;276195;-78
2024/01/29 01:41:23;;;;;;;12.00;11.00;;;4.80;51.80;;;;;;20758;6729;306126;-79
2024/01/29 01:43:58;;;;;;;10.02;9.23;;;4.90;51.30;;;;;;20682;6725;296432;-79
2024/01/29 01:46:34;;;;;;;8.83;8.03;;;5.00;50.90;;;;;;20945;6740;121470;-79
2024/01/29 01:49:10;;;;;;;9.63;8.00;;;4.40;51.90;;;;;;20947;6738;116759;-79
2024/01/29 01:51:46;;;;;;;9.00;8.10;;;4.40;51.80;;;;;;20942;6738;119871;-79
2024/01/29 01:54:22;;;;;;;9.65;8.80;;;4.10;52.70;;;;;;20645;6738;306598;-79
2024/01/29 01:56:58;;;;;;;9.10;8.20;;;4.10;52.70;;;;;;20945;6738;116591;-79
2024/01/29 01:59:33;;;;;;;9.00;8.10;;;4.00;52.50;;;;;;20925;6738;119919;-79
2024/01/29 02:02:10;;;;;;;7.60;6.93;;;3.60;53.20;;;;;;20942;6738;116681;-79
2024/01/29 02:04:45;;;;;;;10.80;9.80;;;3.60;53.30;;;;;;20616;6738;306954;-79
2024/01/29 02:07:21;;;;;;;8.53;7.93;;;3.80;53.60;;;;;;20961;6725;116931;-78
2024/01/29 02:09:57;;;;;;;10.17;9.30;;;3.90;53.30;;;;;;20778;6725;276375;-79
2024/01/29 02:12:34;;;;;;;9.48;8.68;;;3.90;53.30;;;;;;20658;6759;336182;-79
2024/01/29 02:15:10;;;;;;;8.87;8.10;;;4.20;52.90;;;;;;20714;6811;117246;-79
2024/01/29 02:17:46;;;;;;;8.17;7.53;;;3.90;53.20;;;;;;20876;6759;119185;-79
2024/01/29 02:20:22;;;;;;;9.63;8.82;;;3.90;53.10;;;;;;20755;6729;337292;-78
2024/01/29 02:22:57;;;;;;;9.68;8.88;;;4.00;53.30;;;;;;20639;6759;306771;-79
2024/01/29 02:25:33;;;;;;;10.05;9.25;;;4.30;52.50;;;;;;20786;6713;335077;-79
2024/01/29 02:28:08;;;;;;;10.05;9.25;;;4.50;51.60;;;;;;20712;6745;292798;-79
2024/01/29 02:30:44;;;;;;;8.53;7.83;;;4.60;51.10;;;;;;20978;6728;119104;-78
2024/01/29 02:33:21;;;;;;;7.80;7.20;;;4.40;51.30;;;;;;20859;6743;119001;-79
2024/01/29 02:35:56;;;;;;;8.67;7.90;;;4.00;51.90;;;;;;20961;6732;116821;-79
2024/01/29 02:38:32;;;;;;;8.53;7.73;;;3.70;52.60;;;;;;20976;6729;119201;-78
2024/01/29 02:41:08;;;;;;;8.37;7.67;;;3.50;53.20;;;;;;20897;6753;120431;-80
2024/01/29 02:43:43;;;;;;;9.63;8.93;;;3.40;53.60;;;;;;20592;6758;316692;-80
2024/01/29 02:46:19;;;;;;;10.17;9.30;;;3.50;53.50;;;;;;20729;6736;308629;-78
2024/01/29 02:48:54;;;;;;;10.30;9.50;;;3.90;52.70;;;;;;20703;6744;337549;-78
2024/01/29 02:51:31;;;;;;;10.38;9.57;;;4.10;52.20;;;;;;20698;6740;304347;-78
2024/01/29 02:54:07;;;;;;;10.70;9.70;;;4.30;51.80;;;;;;20677;6736;308960;-79
2024/01/29 02:56:45;;;;;;;9.03;8.33;;;4.50;51.60;;;;;;20946;6736;119639;-78
2024/01/29 02:59:21;;;;;;;10.20;9.30;;;4.20;51.60;;;;;;20749;6729;305744;-78
2024/01/29 03:01:56;;;;;;;8.33;7.67;;;4.20;51.80;;;;;;20972;6729;119144;-78
2024/01/29 03:04:34;;;;;;;8.97;8.07;;;4.00;52.00;;;;;;20836;6729;117281;-78
2024/01/29 03:07:11;;;;;;;10.43;9.53;;;3.70;52.70;;;;;;20757;6729;277392;-76
2024/01/29 03:09:47;;;;;;;8.97;8.27;;;3.70;52.70;;;;;;21021;6714;117093;-78
2024/01/29 03:12:22;;;;;;;8.80;8.00;;;3.70;52.70;;;;;;20909;6745;116881;-78
2024/01/29 03:14:58;;;;;;;10.23;9.33;;;3.40;53.10;;;;;;20512;6744;304886;-77
2024/01/29 03:17:33;;;;;;;10.45;9.55;;;3.50;53.30;;;;;;20681;6745;307198;-77
2024/01/29 03:20:20;;;;;;;9.20;8.40;;;3.80;52.90;;;;;;20924;6745;121550;-77
2024/01/29 03:22:46;;;;;;;8.73;7.77;;;3.80;52.90;;;;;;20907;6745;117452;-78
2024/01/29 03:25:21;;;;;;;10.10;9.30;;;3.50;53.30;;;;;;20730;6731;335528;-78
2024/01/29 03:27:57;;;;;;;8.43;7.63;;;3.60;53.60;;;;;;20920;6744;117234;-78
2024/01/29 03:30:32;;;;;;;8.00;7.40;;;3.60;53.50;;;;;;20918;6747;116815;-78
2024/01/29 03:33:08;;;;;;;8.73;7.93;;;3.40;54.40;;;;;;20856;6753;121029;-78
2024/01/29 03:35:43;;;;;;;10.50;9.60;;;3.30;54.10;;;;;;20717;6745;283400;-78
2024/01/29 03:38:19;;;;;;;10.80;9.90;;;3.40;53.90;;;;;;20798;6594;275216;-77
2024/01/29 03:40:55;;;;;;;11.03;10.10;;;3.70;53.10;;;;;;20780;6719;277477;-75
2024/01/29 03:43:30;;;;;;;11.43;10.50;;;4.00;52.40;;;;;;20745;6711;310070;-76
2024/01/29 03:46:06;;;;;;;10.13;9.10;;;4.20;51.80;;;;;;21052;6706;117848;-75
2024/01/29 03:48:41;;;;;;;11.07;10.17;;;4.00;51.70;;;;;;20779;6721;308179;-75
2024/01/29 03:51:17;;;;;;;8.73;7.93;;;3.90;51.80;;;;;;20929;6736;119025;-76
2024/01/29 03:53:53;;;;;;;8.30;7.60;;;3.80;52.00;;;;;;20958;6706;117160;-75
2024/01/29 03:56:28;;;;;;;10.03;9.13;;;3.50;52.60;;;;;;20803;6714;306968;-75
2024/01/29 03:59:04;;;;;;;8.83;8.10;;;3.50;52.90;;;;;;21023;6714;117193;-75
2024/01/29 04:01:39;;;;;;;10.53;9.63;;;3.40;53.60;;;;;;20787;6714;307491;-78
2024/01/29 04:04:19;;;;;;;10.13;9.27;;;3.50;53.00;;;;;;20691;6714;308406;-80
2024/01/29 04:06:55;;;;;;;11.18;10.18;;;3.80;52.20;;;;;;20812;6714;296432;-80
2024/01/29 04:09:30;;;;;;;8.93;8.10;;;4.00;52.10;;;;;;20914;6744;118797;-80
2024/01/29 04:12:09;;;;;;;10.25;9.45;;;3.80;52.10;;;;;;20752;6744;306583;-80
2024/01/29 04:14:42;;;;;;;10.17;9.27;;;3.80;52.40;;;;;;20636;6721;288834;-80
2024/01/29 04:17:17;;;;;;;10.00;9.30;;;4.00;52.00;;;;;;20811;6707;305573;-80
2024/01/29 04:19:53;;;;;;;10.50;9.70;;;4.10;51.40;;;;;;20783;6723;276499;-80
2024/01/29 04:22:28;;;;;;;10.60;9.60;;;4.30;51.20;;;;;;20788;6721;305190;-79
2024/01/29 04:25:07;;;;;;;10.43;9.53;;;4.30;50.80;;;;;;20640;6721;278257;-79
2024/01/29 04:27:41;;;;;;;10.47;9.67;;;4.40;50.60;;;;;;20829;6706;325925;-80
2024/01/29 04:30:17;;;;;;;9.17;8.07;;;4.40;50.20;;;;;;20996;6723;117314;-80
2024/01/29 04:32:53;;;;;;;10.15;9.40;;;4.10;50.40;;;;;;20769;6722;308180;-79
2024/01/29 04:35:28;;;;;;;8.40;7.60;;;4.00;50.80;;;;;;21025;6707;116715;-81
2024/01/29 04:38:05;;;;;;;9.60;8.80;;;3.80;51.50;;;;;;20746;6729;335902;-80
2024/01/29 04:40:42;;;;;;;8.90;8.10;;;3.80;51.40;;;;;;20972;6729;116850;-80
2024/01/29 04:43:16;;;;;;;8.00;7.30;;;3.60;51.50;;;;;;20916;6729;118236;-80
2024/01/29 04:45:51;;;;;;;7.00;6.40;;;3.30;52.10;;;;;;20973;6736;116028;-81
2024/01/29 04:48:27;;;;;;;10.03;9.20;;;3.00;52.60;;;;;;20766;6728;288897;-80
2024/01/29 04:51:05;;;;;;;9.27;8.57;;;3.10;53.10;;;;;;20758;6732;288769;-81
2024/01/29 04:53:41;;;;;;;8.37;7.50;;;3.50;52.60;;;;;;20962;6706;118023;-80
2024/01/29 04:56:17;;;;;;;9.40;8.67;;;3.40;52.50;;;;;;20832;6706;275880;-81
2024/01/29 04:58:53;;;;;;;7.90;7.30;;;3.40;52.50;;;;;;21048;6706;117092;-80
2024/01/29 05:01:28;;;;;;;9.97;9.07;;;3.30;52.50;;;;;;20811;6706;304567;-80
2024/01/29 05:04:05;;;;;;;9.40;8.60;;;3.70;52.10;;;;;;20690;6721;278928;-80
2024/01/29 05:06:42;;;;;;;8.93;8.23;;;3.70;52.10;;;;;;20780;6722;334935;-80
2024/01/29 05:09:19;;;;;;;9.27;8.57;;;3.90;51.40;;;;;;20796;6711;307268;-80
2024/01/29 05:11:54;;;;;;;7.63;7.00;;;3.80;51.10;;;;;;21035;6711;116847;-80
2024/01/29 05:14:29;;;;;;;7.93;7.13;;;3.90;51.20;;;;;;20858;6726;117051;-80
2024/01/29 05:17:05;;;;;;;7.83;7.13;;;3.50;51.80;;;;;;20976;6726;116993;-80
2024/01/29 05:19:44;;;;;;;8.97;8.27;;;3.20;52.50;;;;;;20713;6740;294552;-80
2024/01/29 05:22:16;;;;;;;8.53;7.27;;;3.30;52.50;;;;;;21011;6716;115747;-80
2024/01/29 05:24:55;;;;;;;7.63;6.90;;;3.30;52.50;;;;;;20824;6778;117858;-81
2024/01/29 05:27:27;;;;;;;6.90;6.40;;;3.10;52.80;;;;;;20974;6716;118139;-81
2024/01/29 05:30:05;;;;;;;6.87;6.27;;;2.90;53.20;;;;;;21048;6707;116651;-80
2024/01/29 05:32:41;;;;;;;6.63;6.10;;;2.70;54.00;;;;;;21003;6721;117305;-78
2024/01/29 05:35:17;;;;;;;6.70;6.10;;;2.70;54.10;;;;;;21008;6714;143435;-80
2024/01/29 05:37:52;;;;;;;6.57;6.00;;;2.60;54.30;;;;;;20952;6736;118213;-79
2024/01/29 05:40:28;;;;;;;7.50;6.80;;;2.80;54.50;;;;;;20780;6725;286402;-79
2024/01/29 05:43:04;;;;;;;7.45;6.85;;;2.80;54.50;;;;;;20745;6740;279944;-80
2024/01/29 05:45:40;;;;;;;7.57;6.97;;;3.30;53.60;;;;;;20818;6722;334077;-78
2024/01/29 05:48:17;;;;;;;6.17;5.67;;;3.70;52.70;;;;;;21010;6729;67271;-80
2024/01/29 05:50:52;;;;;;;7.10;6.50;;;3.70;52.60;;;;;;20783;6747;305851;-80
2024/01/29 05:53:29;;;;;;;6.60;5.47;;;3.80;52.50;;;;;;20896;6746;67994;-80
2024/01/29 05:56:08;;;;;;;7.22;6.62;;;3.80;52.50;;;;;;20782;6729;277559;-80
2024/01/29 05:58:44;;;;;;;6.03;5.53;;;3.90;52.20;;;;;;20963;6744;67851;-80
2024/01/29 06:01:17;;;;;;;6.93;6.32;;;4.00;52.10;;;;;;20699;6758;306758;-79
2024/01/29 06:03:53;;;;;;;6.60;5.90;;;3.90;52.00;;;;;;20864;6758;67926;-82
2024/01/29 06:06:28;;;;;;;6.20;5.70;;;3.90;52.00;;;;;;21024;6743;67211;-81
2024/01/29 06:09:09;;;;;;;6.67;6.17;;;3.70;52.40;;;;;;20816;6743;276689;-78
2024/01/29 06:11:45;;;;;;;7.27;6.73;;;3.80;52.20;;;;;;20721;6762;307500;-85
2024/01/29 06:14:19;;;;;;;6.07;5.57;;;4.00;51.30;;;;;;20841;6741;67886;-82
2024/01/29 06:16:55;;;;;;;7.05;6.55;;;4.10;51.40;;;;;;20756;6738;335194;-79
2024/01/29 06:19:30;;;;;;;5.70;5.30;;;4.10;51.30;;;;;;20977;6738;70586;-81
2024/01/29 06:22:07;;;;;;;6.27;5.13;;;4.10;51.50;;;;;;20997;6730;70277;-80
2024/01/29 06:24:42;;;;;;;5.43;4.93;;;3.80;51.80;;;;;;20841;6730;68415;-78
2024/01/29 06:27:21;;;;;;;6.70;6.20;;;3.60;52.30;;;;;;20732;6745;335996;-81
2024/01/29 06:29:54;;;;;;;6.83;6.33;;;4.10;51.40;;;;;;20789;6730;320658;-80
2024/01/29 06:32:30;;;;;;;5.93;5.53;;;4.10;51.40;;;;;;21017;6724;67916;-79
2024/01/29 06:35:07;;;;;;;5.50;5.10;;;3.80;52.50;;;;;;20799;6724;67992;-79
2024/01/29 06:37:42;;;;;;;6.80;6.30;;;3.80;51.70;;;;;;20801;6724;306735;-79
2024/01/29 06:40:18;;;;;;;6.27;5.67;;;3.90;51.80;;;;;;20975;6739;68419;-80
2024/01/29 06:42:53;;;;;;;6.73;6.23;;;3.80;51.70;;;;;;20760;6730;310555;-79
2024/01/29 06:45:30;;;;;;;5.73;5.23;;;3.90;51.60;;;;;;20961;6745;67245;-83
2024/01/29 06:48:07;;;;;;;6.10;5.60;;;3.90;51.60;;;;;;20958;6743;67611;-78
2024/01/29 06:50:40;;;;;;;7.63;7.07;;;3.70;51.90;;;;;;20758;6741;277744;-79
2024/01/29 06:53:16;;;;;;;8.20;7.40;;;3.70;51.50;;;;;;20698;6753;309383;-80
2024/01/29 06:55:51;;;;;;;8.50;7.70;;;4.00;50.80;;;;;;20763;6738;306584;-79
2024/01/29 06:58:28;;;;;;;8.13;7.43;;;4.30;49.80;;;;;;20832;6715;278057;-79
2024/01/29 07:01:03;;;;;;;7.90;7.25;;;4.30;49.80;;;;;;20743;6755;305514;-84
2024/01/29 07:03:39;;;;;;;8.43;7.72;;;4.40;49.50;;;;;;20696;6756;307982;-80
2024/01/29 07:06:15;;;;;;;8.50;7.80;;;4.50;49.20;;;;;;20758;6734;337125;-80
2024/01/29 07:08:50;;;;;;;8.23;7.65;;;4.50;49.30;;;;;;20729;6740;305900;-80
2024/01/29 07:11:26;;;;;;;7.50;6.87;;;4.50;49.10;;;;;;20980;6735;68377;-80
2024/01/29 07:14:02;;;;;;;6.07;5.67;;;3.90;50.40;;;;;;20875;6745;68281;-80
2024/01/29 07:16:38;;;;;;;8.30;7.70;;;3.90;50.40;;;;;;20825;6715;285816;-79
2024/01/29 07:19:13;;;;;;;7.10;6.43;;;3.90;50.70;;;;;;21090;6700;67447;-80
2024/01/29 07:21:50;;;;;;;8.18;7.47;;;3.80;51.10;;;;;;20863;6708;326723;-80
2024/01/29 07:24:25;;;;;;;8.07;7.57;;;3.90;51.40;;;;;;20769;6706;306851;-78
2024/01/29 07:27:00;;;;;;;7.20;6.50;;;4.20;51.20;;;;;;21138;6691;67777;-81
2024/01/29 07:29:36;;;;;;;6.13;5.63;;;4.10;51.10;;;;;;21129;6691;67985;-80
2024/01/29 07:32:11;;;;;;;5.67;5.13;;;3.90;51.70;;;;;;21117;6691;66811;-82
2024/01/29 07:34:47;;;;;;;5.00;4.60;;;3.80;52.30;;;;;;20961;6691;74208;-81
2024/01/29 07:37:22;;;;;;;5.67;5.20;;;3.70;52.90;;;;;;21074;6705;67485;-82
2024/01/29 07:51:18;;;;;;;6.23;5.63;;;5.30;49.10;;;;;;21749;6547;219178;-81
2024/01/29 07:53:44;;;;;;;6.67;6.20;;;5.20;49.30;;;;;;21375;6574;300051;-84
2024/01/29 07:56:10;;;;;;;6.22;5.62;;;5.30;49.20;;;;;;21492;6630;67026;-81
2024/01/29 07:58:35;;;;;;;6.00;5.50;;;5.20;49.40;;;;;;21437;6645;67179;-81
2024/01/29 08:01:00;;;;;;;6.30;5.90;;;5.00;49.80;;;;;;21219;6645;273321;-83
2024/01/29 08:03:27;;;;;;;6.97;6.30;;;5.00;49.60;;;;;;21484;6630;66656;-81
2024/01/29 08:05:52;;;;;;;5.73;5.23;;;5.00;49.60;;;;;;21487;6630;66173;-81
2024/01/29 08:08:18;;;;;;;5.57;5.13;;;4.90;50.10;;;;;;21430;6645;66839;-81
2024/01/29 08:10:47;;;;;;;6.77;6.17;;;4.70;51.20;;;;;;21436;6645;73017;-81
2024/01/29 08:13:12;;;;;;;6.50;6.00;;;4.70;51.20;;;;;;21474;6630;67076;-83
2024/01/29 08:15:38;;;;;;;7.97;5.67;;;4.70;51.60;;;;;;21442;6645;70554;-81
2024/01/29 08:18:04;;;;;;;6.93;6.37;;;4.70;51.90;;;;;;21214;6645;274334;-81
2024/01/29 08:20:29;;;;;;;7.17;6.67;;;5.00;51.00;;;;;;21484;6630;69927;-81
2024/01/29 08:22:56;;;;;;;8.40;6.47;;;5.20;50.80;;;;;;21483;6630;66714;-81
2024/01/29 08:25:22;;;;;;;7.40;6.90;;;5.20;51.10;;;;;;21219;6645;303415;-81
2024/01/29 08:27:47;;;;;;;7.65;7.12;;;5.40;50.10;;;;;;21258;6630;301830;-80
2024/01/29 08:30:13;;;;;;;7.32;6.82;;;5.80;49.10;;;;;;21257;6630;329555;-80
2024/01/29 08:32:39;;;;;;;6.00;5.50;;;6.20;48.60;;;;;;21434;6645;67160;-82
2024/01/29 08:35:05;;;;;;;7.32;6.72;;;6.50;48.20;;;;;;21212;6645;302743;-82
2024/01/29 08:37:31;;;;;;;6.53;5.93;;;6.50;48.40;;;;;;21475;6630;67228;-80
2024/01/29 08:39:57;;;;;;;7.32;6.70;;;6.50;48.40;;;;;;21266;6630;302243;-82
2024/01/29 08:42:22;;;;;;;5.80;5.40;;;6.70;47.60;;;;;;21430;6645;69664;-80
2024/01/29 08:44:56;;;;;;;7.28;6.68;;;6.80;47.30;;;;;;21217;6645;273610;-80
2024/01/29 08:47:21;;;;;;;7.13;6.53;;;6.80;48.40;;;;;;21476;6630;66544;-80
2024/01/29 08:49:49;;;;;;;7.32;6.80;;;6.90;47.40;;;;;;21219;6645;331107;-81
2024/01/29 08:52:13;;;;;;;6.47;5.97;;;6.90;47.20;;;;;;21469;6630;67528;-80
2024/01/29 08:54:39;;;;;;;6.90;6.03;;;6.90;47.50;;;;;;21484;6630;66489;-83
2024/01/29 08:57:05;;;;;;;6.30;5.80;;;6.80;48.20;;;;;;21433;6645;66367;-82
2024/01/29 08:59:31;;;;;;;7.18;6.68;;;6.60;48.60;;;;;;21208;6645;301609;-80
2024/01/29 09:01:57;;;;;;;6.97;6.47;;;6.70;47.90;;;;;;21265;6629;332260;-80
2024/01/29 09:04:21;;;;;;;9.23;6.07;;;7.10;46.90;;;;;;21433;6645;66760;-81
2024/01/29 09:06:47;;;;;;;7.37;6.80;;;7.10;47.10;;;;;;21210;6645;301929;-81
2024/01/29 09:09:13;;;;;;;6.27;5.87;;;7.20;47.00;;;;;;21489;6630;67579;-80
2024/01/29 09:11:39;;;;;;;5.80;5.40;;;7.20;47.00;;;;;;21438;6645;67349;-81
2024/01/29 09:14:05;;;;;;;6.80;6.30;;;7.00;47.60;;;;;;21217;6645;272102;-80
2024/01/29 09:16:32;;;;;;;5.90;5.50;;;7.20;47.10;;;;;;21482;6630;66942;-80
2024/01/29 09:18:57;;;;;;;6.23;5.73;;;7.20;47.40;;;;;;21428;6645;67160;-80
2024/01/29 09:21:23;;;;;;;5.60;5.20;;;7.10;48.40;;;;;;21434;6645;66272;-80
2024/01/29 09:23:48;;;;;;;6.53;6.03;;;7.10;48.30;;;;;;21262;6630;301778;-81
2024/01/29 09:26:14;;;;;;;6.20;5.80;;;7.30;47.30;;;;;;21198;6645;301878;-80
2024/01/29 09:28:41;;;;;;;6.43;5.50;;;7.70;46.60;;;;;;21436;6645;67468;-80
2024/01/29 09:31:05;;;;;;;6.82;6.43;;;7.80;46.90;;;;;;21257;6630;315360;-81
2024/01/29 09:33:32;;;;;;;5.80;5.40;;;8.00;46.50;;;;;;21435;6645;66904;-80
2024/01/29 09:35:57;;;;;;;6.87;6.32;;;8.10;46.80;;;;;;21213;6645;301114;-80
2024/01/29 09:38:26;;;;;;;6.78;6.30;;;8.20;45.90;;;;;;21293;6403;272309;-75
2024/01/29 09:41:00;;;;;;;6.87;6.17;;;8.50;45.50;;;;;;20843;6545;307161;-75
2024/01/29 09:43:36;;;;;;;5.37;5.00;;;8.90;44.80;;;;;;20837;6762;118198;-75
2024/01/29 09:46:13;;;;;;;6.50;6.00;;;8.80;45.20;;;;;;20808;6714;305049;-75
2024/01/29 09:48:48;;;;;;;6.50;6.10;;;9.20;45.40;;;;;;20831;6707;276260;-72
2024/01/29 09:51:24;;;;;;;6.60;6.03;;;9.20;44.80;;;;;;20758;6725;277457;-74
2024/01/29 09:54:01;;;;;;;6.40;5.80;;;9.70;43.80;;;;;;20722;6724;307060;-76
2024/01/29 09:56:38;;;;;;;5.67;5.27;;;9.70;43.80;;;;;;21085;6707;117591;-72
2024/01/29 09:59:15;;;;;;;5.93;5.50;;;9.70;43.60;;;;;;20784;6722;305473;-74
2024/01/29 10:01:51;;;;;;;6.40;5.73;;;9.70;43.60;;;;;;21006;6718;116812;-72
2024/01/29 10:04:27;;;;;;;5.97;5.53;;;9.60;44.20;;;;;;20666;6717;279724;-74
2024/01/29 10:07:03;;;;;;;6.77;6.17;;;10.00;42.40;;;;;;20784;6718;306230;-76
2024/01/29 10:09:39;;;;;;;6.37;5.87;;;10.00;42.40;;;;;;20774;6717;290597;-76
2024/01/29 10:12:22;;;;;;;6.30;5.80;;;10.30;41.40;;;;;;21052;6703;118190;-76
2024/01/29 10:14:57;;;;;;;4.97;4.60;;;10.20;42.00;;;;;;20837;6716;117078;-75
2024/01/29 10:17:33;;;;;;;5.87;5.40;;;10.10;43.00;;;;;;21032;6702;116811;-76
2024/01/29 10:20:18;;;;;;;6.10;5.68;;;10.00;43.80;;;;;;20829;6702;304440;-76
2024/01/29 10:22:59;;;;;;;5.30;4.90;;;10.10;43.00;;;;;;21018;6717;117293;-76
2024/01/29 10:25:38;;;;;;;5.10;4.80;;;10.20;43.30;;;;;;20954;6721;117779;-75
2024/01/29 10:28:14;;;;;;;5.53;5.23;;;10.20;43.70;;;;;;20796;6716;311591;-76
2024/01/29 10:30:46;;;;;;;5.10;4.80;;;10.40;42.10;;;;;;20993;6721;117699;-75
2024/01/29 10:33:22;;;;;;;5.40;5.00;;;10.50;42.60;;;;;;20987;6703;117688;-76
2024/01/29 10:35:58;;;;;;;6.00;5.60;;;10.50;43.20;;;;;;20830;6703;305970;-76
2024/01/29 10:38:33;;;;;;;5.90;5.40;;;10.60;42.00;;;;;;21053;6703;117187;-76
2024/01/29 10:41:09;;;;;;;5.50;5.10;;;10.70;42.40;;;;;;20991;6722;116879;-75
2024/01/29 10:43:44;;;;;;;7.70;7.00;;;10.70;43.00;;;;;;20674;6721;337438;-74
2024/01/29 10:46:20;;;;;;;5.50;5.10;;;10.90;42.00;;;;;;21065;6707;116660;-74
2024/01/29 10:48:56;;;;;;;6.20;5.78;;;11.10;40.00;;;;;;20866;6707;305381;-78
2024/01/29 10:51:33;;;;;;;5.10;4.80;;;11.10;40.00;;;;;;20855;6707;304344;-77
2024/01/29 10:54:07;;;;;;;4.50;4.20;;;11.50;41.00;;;;;;20982;6707;118820;-77
2024/01/29 10:56:43;;;;;;;6.05;5.50;;;11.60;41.60;;;;;;20857;6707;304876;-76
2024/01/29 10:59:20;;;;;;;6.40;5.90;;;11.80;40.40;;;;;;20849;6707;277385;-76
2024/01/29 11:01:55;;;;;;;6.40;5.80;;;12.10;40.30;;;;;;20872;6707;299091;-75
2024/01/29 11:04:31;;;;;;;5.30;5.00;;;12.40;40.00;;;;;;20958;6707;117526;-76
2024/01/29 11:07:12;;;;;;;4.83;4.53;;;12.30;41.20;;;;;;21084;6707;116853;-75
2024/01/29 11:09:49;;;;;;;5.97;5.47;;;12.20;41.20;;;;;;20751;6748;277067;-76
2024/01/29 11:12:25;;;;;;;5.83;5.33;;;12.30;40.00;;;;;;21012;6748;117690;-76
2024/01/29 11:15:01;;;;;;;5.13;4.60;;;12.40;40.80;;;;;;20921;6707;117249;-77
2024/01/29 11:17:36;;;;;;;5.82;5.43;;;12.20;41.40;;;;;;20852;6707;283079;-77
2024/01/29 11:20:12;;;;;;;5.30;4.90;;;12.30;39.80;;;;;;21085;6707;116562;-76
2024/01/29 11:22:50;;;;;;;5.10;4.70;;;12.40;40.60;;;;;;21081;6707;116682;-76
2024/01/29 11:25:27;;;;;;;5.50;5.10;;;12.20;41.00;;;;;;20855;6707;306087;-76
2024/01/29 11:28:01;;;;;;;4.87;4.50;;;12.40;38.20;;;;;;21067;6706;116746;-76
2024/01/29 11:30:39;;;;;;;4.53;4.10;;;12.50;38.90;;;;;;21074;6706;117414;-78
2024/01/29 11:33:14;;;;;;;4.60;4.23;;;12.40;39.70;;;;;;20828;6706;277131;-75
2024/01/29 11:35:55;;;;;;;3.83;3.50;;;12.50;36.90;;;;;;21059;6706;118355;-75
2024/01/29 11:38:25;;;;;;;5.72;4.53;;;12.60;37.80;;;;;;20874;6707;274641;-75
2024/01/29 11:41:01;;;;;;;3.97;3.70;;;12.80;36.60;;;;;;21071;6707;116849;-78
2024/01/29 11:43:36;;;;;;;5.33;3.43;;;12.90;37.40;;;;;;20989;6707;118685;-75
2024/01/29 11:46:12;;;;;;;3.60;3.40;;;12.80;38.00;;;;;;20871;6707;275234;-75
2024/01/29 11:48:47;;;;;;;3.20;2.83;;;13.00;35.80;;;;;;21087;6707;118079;-75
2024/01/29 11:51:23;;;;;;;3.73;3.43;;;13.10;36.50;;;;;;21069;6707;117761;-75
2024/01/29 11:53:59;;;;;;;3.78;3.47;;;13.10;37.10;;;;;;20757;6707;277093;-75
2024/01/29 11:56:35;;;;;;;3.43;3.23;;;13.50;34.40;;;;;;20859;6707;275633;-76
2024/01/29 11:59:11;;;;;;;3.53;3.22;;;13.50;34.30;;;;;;20829;6707;276010;-77
2024/01/29 12:23:23;;;;;;;4.30;4.00;;;15.50;33.30;;;;;;21073;6506;68218;-77
2024/01/29 12:25:50;;;;;;;6.47;4.53;;;14.90;35.10;;;;;;20809;6827;118700;-77
2024/01/29 12:28:15;;;;;;;4.90;4.50;;;14.90;35.10;;;;;;20764;6839;118227;-77
2024/01/29 12:30:55;;;;;;;4.93;4.53;;;14.60;35.80;;;;;;20572;6839;331844;-77
2024/01/29 12:33:27;;;;;;;6.07;4.73;;;14.60;35.50;;;;;;20762;6839;118800;-78
2024/01/29 12:35:46;;;;;;;5.20;4.70;;;14.60;36.30;;;;;;20529;6843;339853;-77
2024/01/29 12:38:12;;;;;;;4.45;4.05;;;14.60;35.20;;;;;;20509;6858;311609;-77
2024/01/29 12:40:39;;;;;;;4.82;4.40;;;14.80;35.10;;;;;;20474;6875;309384;-77
2024/01/29 12:43:03;;;;;;;7.75;4.93;;;15.00;34.40;;;;;;20479;6875;310596;-78
2024/01/29 12:45:29;;;;;;;5.23;4.73;;;15.20;34.30;;;;;;20693;6878;68346;-78
2024/01/29 12:48:09;;;;;;;4.47;4.07;;;15.10;35.10;;;;;;20750;6857;67974;-77
2024/01/29 12:50:34;;;;;;;5.18;4.68;;;14.80;35.90;;;;;;20529;6857;338414;-78
2024/01/29 12:53:01;;;;;;;34.10;22.13;;;14.80;34.90;;;;;;20738;6857;72765;-76
2024/01/29 12:55:29;;;;;;;5.95;5.35;;;14.70;35.70;;;;;;20547;6857;337812;-78
2024/01/29 12:57:52;;;;;;;3.83;3.47;;;15.00;35.70;;;;;;20499;6857;303651;-76
2024/01/29 13:00:20;;;;;;;3.55;3.20;;;15.20;33.70;;;;;;20531;6857;309531;-77
2024/01/29 13:02:45;;;;;;;3.10;2.90;;;15.20;33.70;;;;;;20744;6857;69176;-76
2024/01/29 13:05:11;;;;;;;3.63;3.37;;;15.20;34.40;;;;;;20531;6857;316729;-76
2024/01/29 13:07:37;;;;;;;3.93;3.63;;;15.20;34.20;;;;;;20540;6857;292801;-77
2024/01/29 13:10:03;;;;;;;3.50;3.27;;;15.30;34.30;;;;;;20546;6857;292460;-76
2024/01/29 13:12:28;;;;;;;3.83;3.53;;;15.50;33.60;;;;;;20536;6857;278777;-76
2024/01/29 13:14:53;;;;;;;3.75;3.55;;;15.60;34.20;;;;;;20545;6857;307748;-76
2024/01/29 13:17:19;;;;;;;4.77;3.27;;;15.70;33.50;;;;;;20757;6857;91162;-75
2024/01/29 13:19:45;;;;;;;3.60;3.30;;;15.50;34.40;;;;;;20552;6857;279413;-77
2024/01/29 13:22:10;;;;;;;3.80;3.60;;;15.50;34.40;;;;;;20548;6857;279025;-75
2024/01/29 13:24:36;;;;;;;3.60;3.40;;;15.60;34.50;;;;;;20766;6857;67879;-77
2024/01/29 13:27:03;;;;;;;4.07;3.67;;;15.50;35.40;;;;;;20539;6857;307573;-77
2024/01/29 13:29:29;;;;;;;3.80;3.40;;;15.50;35.90;;;;;;20755;6857;67900;-77
2024/01/29 13:31:55;;;;;;;6.17;5.57;;;15.40;36.60;;;;;;20553;6857;315748;-78
2024/01/29 13:34:23;;;;;;;4.70;4.40;;;15.30;35.70;;;;;;20545;6856;328790;-78
2024/01/29 13:36:48;;;;;;;3.67;3.47;;;15.50;35.40;;;;;;20761;6857;68281;-78
2024/01/29 13:39:17;;;;;;;4.00;3.50;;;15.40;36.00;;;;;;20757;6857;68451;-78
2024/01/29 13:41:42;;;;;;;5.33;3.50;;;14.90;37.10;;;;;;20746;6857;67809;-77
2024/01/29 13:44:08;;;;;;;4.00;3.60;;;14.60;37.50;;;;;;20739;6857;67481;-76
2024/01/29 13:46:33;;;;;;;4.17;3.77;;;14.70;37.60;;;;;;20759;6857;67957;-77
2024/01/29 13:49:00;;;;;;;5.05;4.30;;;14.50;38.10;;;;;;20763;6857;67444;-77